Time;durP1;ratioP1;P1;durP2;ratioP2;P2;SDS_P1;SDS_P2;PMS_P1;PMS_P2;Temp;Humidity;BMP_temperature;BMP_pressure;BME280_temperature;BME280_humidity;BME280_pressure;Samples;Min_cycle;Max_cycle;Signal;HPM_P1;HPM_P2
2022/10/16 00:01:51;;;;;;;61.78;36.60;;;;;;;18.96;100.00;100852.50;4916533;29;20040;-79
2022/10/16 00:04:16;;;;;;;65.88;36.97;;;;;;;19.08;100.00;100858.91;4918103;29;20066;-79
2022/10/16 00:06:43;;;;;;;69.70;40.08;;;;;;;18.94;100.00;100866.16;4918266;29;20028;-80
2022/10/16 00:09:09;;;;;;;64.75;38.95;;;;;;;18.87;100.00;100864.50;4931410;29;20036;-80
2022/10/16 00:11:38;;;;;;;68.80;39.17;;;;;;;18.67;100.00;100861.81;4937051;29;20096;-81
2022/10/16 00:14:08;;;;;;;67.18;38.10;;;;;;;18.68;100.00;100874.22;4936139;29;20426;-79
2022/10/16 00:16:34;;;;;;;66.75;36.80;;;;;;;18.77;100.00;100869.44;4920907;29;20442;-79
2022/10/16 00:19:00;;;;;;;79.00;38.47;;;;;;;18.52;100.00;100866.56;4916299;29;20414;-79
2022/10/16 00:21:28;;;;;;;67.20;36.75;;;;;;;18.73;100.00;100878.94;4918628;29;20036;-80
2022/10/16 00:24:08;;;;;;;61.25;35.13;;;;;;;18.83;100.00;100865.94;4920532;29;20044;-80
2022/10/16 00:26:35;;;;;;;62.30;34.42;;;;;;;18.85;100.00;100862.03;4920475;29;20079;-82
2022/10/16 00:29:00;;;;;;;74.22;37.85;;;;;;;18.76;100.00;100862.44;4920131;29;20095;-80
2022/10/16 00:31:26;;;;;;;58.15;34.60;;;;;;;18.87;100.00;100870.69;4920070;29;20028;-80
2022/10/16 00:33:52;;;;;;;57.95;33.88;;;;;;;18.98;100.00;100878.13;4925411;29;20063;-80
2022/10/16 00:36:21;;;;;;;58.00;33.55;;;;;;;19.06;100.00;100869.84;4924622;29;20067;-80
2022/10/16 00:38:49;;;;;;;63.90;35.00;;;;;;;19.02;100.00;100873.19;4920092;29;20040;-82
2022/10/16 00:41:17;;;;;;;67.75;35.83;;;;;;;18.81;100.00;100870.69;4918793;29;20032;-79
2022/10/16 00:43:43;;;;;;;61.25;35.28;;;;;;;18.61;100.00;100876.06;4918298;29;20067;-81
2022/10/16 00:46:38;;;;;;;56.47;33.47;;;;;;;18.73;100.00;100878.94;4919793;29;20040;-80
2022/10/16 00:49:10;;;;;;;53.50;32.50;;;;;;;18.85;100.00;100872.78;4919939;29;20052;-81
2022/10/16 00:51:42;;;;;;;55.33;30.63;;;;;;;18.92;100.00;100876.28;4919445;29;20540;-81
2022/10/16 00:54:15;;;;;;;58.00;33.15;;;;;;;18.80;100.00;100880.59;4919462;29;20386;-84
2022/10/16 00:56:43;;;;;;;59.60;33.45;;;;;;;18.63;100.00;100879.38;4919429;29;20079;-80
2022/10/16 00:59:16;;;;;;;59.22;33.85;;;;;;;18.63;100.00;100868.63;4919209;29;20111;-82
2022/10/16 01:01:41;;;;;;;68.07;34.15;;;;;;;18.53;100.00;100873.56;4919434;29;20036;-82
2022/10/16 01:04:07;;;;;;;52.58;31.55;;;;;;;18.70;100.00;100856.03;4917866;29;20039;-80
2022/10/16 01:06:53;;;;;;;59.70;31.50;;;;;;;18.72;100.00;100855.84;4919194;29;20040;-84
2022/10/16 01:09:35;;;;;;;53.33;30.55;;;;;;;18.52;100.00;100855.84;4919280;29;20395;-84
2022/10/16 01:12:09;;;;;;;57.60;32.90;;;;;;;18.43;100.00;100857.00;4919101;29;20036;-82
2022/10/16 01:15:13;;;;;;;57.15;32.13;;;;;;;18.41;100.00;100861.78;4919057;29;20040;-84
2022/10/16 01:17:51;;;;;;;60.88;31.35;;;;;;;18.43;100.00;100859.69;4919057;29;20044;-85
2022/10/16 01:20:40;;;;;;;55.13;31.73;;;;;;;18.42;100.00;100861.56;4918847;29;20063;-85
2022/10/16 01:23:21;;;;;;;57.63;32.05;;;;;;;18.30;100.00;100862.34;4919111;29;20104;-81
2022/10/16 01:26:08;;;;;;;59.63;32.70;;;;;;;18.35;100.00;100860.75;4918810;29;20059;-83
2022/10/16 01:28:45;;;;;;;61.38;33.67;;;;;;;18.36;100.00;100866.94;4917647;29;20144;-79
2022/10/16 01:31:17;;;;;;;59.47;32.83;;;;;;;18.44;100.00;100864.03;4918250;29;20044;-80
2022/10/16 01:33:47;;;;;;;52.85;31.27;;;;;;;18.60;100.00;100866.34;4918568;29;20092;-81
2022/10/16 01:36:18;;;;;;;54.88;32.05;;;;;;;18.53;100.00;100878.94;4918489;29;20040;-81
2022/10/16 01:38:48;;;;;;;58.45;32.55;;;;;;;18.41;100.00;100876.00;4918354;29;20450;-80
2022/10/16 01:41:30;;;;;;;60.25;31.98;;;;;;;18.20;100.00;100870.81;4918319;29;20040;-80
2022/10/16 01:44:33;;;;;;;49.03;31.05;;;;;;;18.17;100.00;100873.91;4918523;29;20119;-81
2022/10/16 01:46:59;;;;;;;60.55;31.10;;;;;;;18.11;100.00;100880.06;4878674;29;20526;-81
2022/10/16 01:49:29;;;;;;;58.40;32.25;;;;;;;18.16;100.00;100869.59;4878617;29;20057;-80
2022/10/16 01:51:59;;;;;;;59.80;32.15;;;;;;;18.18;100.00;100869.38;4878699;29;20550;-79
2022/10/16 01:54:28;;;;;;;54.88;30.42;;;;;;;18.24;100.00;100874.75;4878250;29;20598;-79
2022/10/16 01:56:56;;;;;;;49.92;29.80;;;;;;;18.15;100.00;100869.78;4882961;29;20072;-79
2022/10/16 01:59:25;;;;;;;48.10;28.67;;;;;;;18.20;100.00;100867.28;4882656;29;20121;-80
2022/10/16 02:01:56;;;;;;;54.80;30.42;;;;;;;18.15;100.00;100872.44;4894937;29;20048;-80
2022/10/16 02:04:52;;;;;;;55.08;30.45;;;;;;;18.06;100.00;100869.94;4917973;29;20505;-80
2022/10/16 02:07:17;;;;;;;50.88;28.77;;;;;;;18.24;100.00;100876.59;4925932;29;20066;-80
2022/10/16 02:09:43;;;;;;;48.08;29.77;;;;;;;18.35;100.00;100874.16;4926143;29;20478;-80
2022/10/16 02:12:19;;;;;;;52.08;31.58;;;;;;;18.29;100.00;100871.47;4920436;29;20581;-79
2022/10/16 02:14:44;;;;;;;58.05;33.92;;;;;;;18.23;100.00;100878.44;4917582;29;20100;-80
2022/10/16 02:17:12;;;;;;;59.85;31.98;;;;;;;18.31;100.00;100874.75;4924061;29;20471;-81
2022/10/16 02:19:38;;;;;;;56.20;30.90;;;;;;;18.25;100.00;100875.56;4925554;29;20067;-79
2022/10/16 02:22:06;;;;;;;52.60;32.38;;;;;;;18.21;100.00;100869.78;4927414;29;20064;-80
2022/10/16 02:24:53;;;;;;;59.17;31.52;;;;;;;18.17;100.00;100873.06;4928035;29;20054;-80
2022/10/16 02:27:19;;;;;;;64.13;35.80;;;;;;;18.05;100.00;100872.84;4925919;29;20552;-79
2022/10/16 02:29:52;;;;;;;64.55;34.95;;;;;;;18.16;100.00;100866.91;4926232;29;20059;-79
2022/10/16 02:32:24;;;;;;;57.60;34.42;;;;;;;18.13;100.00;100866.47;4920062;29;20142;-80
2022/10/16 02:34:51;;;;;;;54.08;32.22;;;;;;;18.29;100.00;100874.16;4915496;29;20048;-81
2022/10/16 02:37:18;;;;;;;70.10;35.67;;;;;;;18.13;100.00;100871.84;4916266;29;20040;-78
2022/10/16 02:39:44;;;;;;;57.33;34.95;;;;;;;18.11;100.00;100879.25;4917315;29;20044;-80
2022/10/16 02:42:11;;;;;;;63.75;36.35;;;;;;;18.22;100.00;100881.34;4917308;29;20056;-79
2022/10/16 02:44:37;;;;;;;58.13;35.45;;;;;;;18.14;100.00;100881.53;4916552;29;20047;-80
2022/10/16 02:47:02;;;;;;;58.13;32.38;;;;;;;18.19;100.00;100881.75;4917134;29;20040;-79
2022/10/16 02:49:28;;;;;;;60.42;33.88;;;;;;;18.02;100.00;100882.13;4917217;29;20045;-81
2022/10/16 02:51:56;;;;;;;57.33;31.65;;;;;;;18.02;100.00;100882.13;4917072;29;20530;-79
2022/10/16 02:54:22;;;;;;;49.28;30.25;;;;;;;18.15;100.00;100885.88;4917159;29;20118;-81
2022/10/16 02:56:47;;;;;;;57.03;32.67;;;;;;;18.13;100.00;100887.94;4917095;29;20123;-82
2022/10/16 02:59:13;;;;;;;53.55;32.72;;;;;;;17.95;100.00;100891.16;4917103;29;20036;-82
2022/10/16 03:01:39;;;;;;;57.63;31.75;;;;;;;17.97;100.00;100889.09;4917121;29;20028;-83
2022/10/16 03:04:04;;;;;;;50.50;31.52;;;;;;;18.08;100.00;100894.72;4916971;29;20467;-83
2022/10/16 03:06:30;;;;;;;48.85;30.48;;;;;;;18.10;100.00;100893.72;4917176;29;20043;-81
2022/10/16 03:08:55;;;;;;;55.10;32.92;;;;;;;18.06;100.00;100888.72;4916966;29;20044;-81
2022/10/16 03:11:21;;;;;;;56.08;34.20;;;;;;;17.94;100.00;100890.34;4915565;29;20036;-81
2022/10/16 03:13:47;;;;;;;55.83;32.50;;;;;;;17.97;100.00;100897.97;4916939;29;20119;-80
2022/10/16 03:16:12;;;;;;;59.03;34.40;;;;;;;17.91;100.00;100897.97;4916634;29;20054;-81
2022/10/16 03:18:38;;;;;;;52.45;31.85;;;;;;;17.89;100.00;100894.66;4918206;29;20119;-81
2022/10/16 03:21:03;;;;;;;60.55;34.22;;;;;;;17.84;100.00;100897.94;4925690;29;20044;-80
2022/10/16 03:23:29;;;;;;;59.38;33.63;;;;;;;17.92;100.00;100897.78;4915411;29;20475;-79
2022/10/16 03:25:54;;;;;;;58.03;34.30;;;;;;;17.84;100.00;100887.22;4915558;29;20036;-80
2022/10/16 03:28:20;;;;;;;58.67;34.30;;;;;;;17.79;100.00;100891.53;4916664;29;20040;-79
2022/10/16 03:30:45;;;;;;;62.60;35.95;;;;;;;17.76;100.00;100891.94;4916707;29;20082;-80
2022/10/16 03:33:11;;;;;;;55.25;33.47;;;;;;;17.91;100.00;100896.09;4915492;29;20044;-80
2022/10/16 03:35:36;;;;;;;63.65;35.45;;;;;;;17.79;100.00;100896.88;4916718;29;20067;-80
2022/10/16 03:38:02;;;;;;;57.65;33.08;;;;;;;17.63;100.00;100898.06;4916523;29;20043;-79
2022/10/16 03:40:27;;;;;;;64.00;32.80;;;;;;;17.69;100.00;100905.31;4916545;29;20040;-80
2022/10/16 03:42:57;;;;;;;55.28;32.88;;;;;;;17.75;100.00;100904.50;4916634;29;20386;-80
2022/10/16 03:45:23;;;;;;;54.35;32.63;;;;;;;17.70;100.00;100909.63;4916380;29;20503;-81
2022/10/16 03:47:48;;;;;;;60.35;32.45;;;;;;;17.74;100.00;100905.53;4916725;29;20028;-82
2022/10/16 03:50:14;;;;;;;59.45;33.45;;;;;;;17.71;100.00;100908.59;4916411;29;20047;-80
2022/10/16 03:52:39;;;;;;;58.30;32.00;;;;;;;17.73;100.00;100911.09;4915234;29;20111;-81
2022/10/16 03:55:05;;;;;;;53.53;32.63;;;;;;;17.81;100.00;100910.91;4917708;29;20051;-81
2022/10/16 03:57:31;;;;;;;56.15;33.35;;;;;;;17.83;100.00;100917.72;4920302;29;20040;-80
2022/10/16 03:59:56;;;;;;;58.00;32.15;;;;;;;17.91;100.00;100914.88;4919140;29;20016;-81
2022/10/16 04:02:22;;;;;;;54.33;31.38;;;;;;;18.12;100.00;100918.47;4920229;29;20048;-80
2022/10/16 04:04:48;;;;;;;55.33;32.55;;;;;;;18.14;100.00;100911.03;4920084;29;20044;-81
2022/10/16 04:07:13;;;;;;;55.10;30.35;;;;;;;18.20;100.00;100915.59;4919035;29;20040;-80
2022/10/16 04:09:39;;;;;;;51.00;30.58;;;;;;;18.17;100.00;100911.47;4920293;29;20396;-80
2022/10/16 04:12:04;;;;;;;50.67;30.30;;;;;;;18.30;100.00;100916.84;4919799;29;20039;-81
2022/10/16 04:14:29;;;;;;;48.13;30.17;;;;;;;18.34;100.00;100917.28;4920010;29;20040;-80
2022/10/16 04:16:56;;;;;;;65.00;33.33;;;;;;;18.01;100.00;100918.00;4920123;29;20040;-82
2022/10/16 04:19:21;;;;;;;60.28;32.15;;;;;;;17.82;100.00;100918.78;4919739;29;20036;-79
2022/10/16 04:21:47;;;;;;;65.13;36.42;;;;;;;17.72;100.00;100918.31;4920028;29;20099;-81
2022/10/16 04:24:12;;;;;;;64.70;37.47;;;;;;;17.61;100.00;100921.53;4920143;29;20028;-80
2022/10/16 04:26:38;;;;;;;65.20;38.60;;;;;;;17.63;100.00;100924.03;4923871;29;20036;-82
2022/10/16 04:29:04;;;;;;;70.40;41.80;;;;;;;17.67;100.00;100920.75;4923023;29;20036;-79
2022/10/16 04:31:29;;;;;;;82.07;42.88;;;;;;;17.59;100.00;100926.28;4922099;29;20043;-80
2022/10/16 04:33:55;;;;;;;81.85;45.05;;;;;;;17.55;100.00;100924.97;4922609;29;20479;-80
2022/10/16 04:36:21;;;;;;;91.63;49.53;;;;;;;17.48;100.00;100924.94;4937023;29;20046;-80
2022/10/16 04:38:47;;;;;;;95.32;50.83;;;;;;;17.44;100.00;100930.88;4938353;29;20088;-81
2022/10/16 04:41:13;;;;;;;106.75;51.55;;;;;;;17.41;100.00;100932.09;4941355;29;20059;-79
2022/10/16 04:43:38;;;;;;;108.05;54.53;;;;;;;17.45;100.00;100945.94;4934622;29;20514;-80
2022/10/16 04:46:04;;;;;;;107.53;55.85;;;;;;;17.50;100.00;100938.13;4926702;29;20046;-81
2022/10/16 04:48:31;;;;;;;104.45;54.40;;;;;;;17.48;100.00;100934.84;4927050;29;20034;-80
2022/10/16 04:50:56;;;;;;;107.03;57.70;;;;;;;17.48;100.00;100935.66;4923724;29;20036;-82
2022/10/16 04:53:22;;;;;;;97.72;53.30;;;;;;;17.66;100.00;100940.56;4922079;29;20044;-84
2022/10/16 04:55:47;;;;;;;97.00;54.70;;;;;;;17.54;100.00;100944.75;4920657;29;20474;-80
2022/10/16 04:58:13;;;;;;;102.50;55.38;;;;;;;17.44;100.00;100939.75;4920481;29;20092;-82
2022/10/16 05:00:38;;;;;;;102.90;52.40;;;;;;;17.46;100.00;100934.22;4918832;29;20044;-82
2022/10/16 05:03:07;;;;;;;92.85;53.05;;;;;;;17.41;100.00;100942.00;4921206;29;20104;-80
2022/10/16 05:05:33;;;;;;;109.35;52.88;;;;;;;17.37;100.00;100946.09;4921984;29;20048;-81
2022/10/16 05:07:58;;;;;;;88.05;50.63;;;;;;;17.34;100.00;100941.94;4917950;29;20125;-81
2022/10/16 05:10:24;;;;;;;97.18;51.85;;;;;;;17.30;100.00;100945.25;4919265;29;20040;-83
2022/10/16 05:12:51;;;;;;;95.18;49.17;;;;;;;17.29;100.00;100949.75;4919613;29;20035;-83
2022/10/16 05:15:16;;;;;;;89.38;50.33;;;;;;;17.30;100.00;100945.25;4917575;29;20048;-81
2022/10/16 05:17:42;;;;;;;104.68;51.17;;;;;;;17.30;100.00;100942.56;4919153;29;20040;-82
2022/10/16 05:20:07;;;;;;;95.18;52.30;;;;;;;17.25;100.00;100945.81;4918987;29;20399;-81
2022/10/16 05:22:33;;;;;;;104.35;52.50;;;;;;;17.30;100.00;100945.25;4919193;29;20036;-82
2022/10/16 05:24:58;;;;;;;96.07;51.05;;;;;;;17.33;100.00;100952.88;4901977;29;20039;-82
2022/10/16 05:27:24;;;;;;;114.70;52.03;;;;;;;17.46;100.00;100955.66;4918982;29;20043;-80
2022/10/16 05:29:50;;;;;;;89.05;51.60;;;;;;;17.47;100.00;100957.28;4918639;29;20032;-80
2022/10/16 05:32:16;;;;;;;97.95;52.67;;;;;;;17.47;100.00;100958.13;4918561;29;20060;-82
2022/10/16 05:34:42;;;;;;;95.35;51.22;;;;;;;17.37;100.00;100962.16;4918987;29;20040;-79
2022/10/16 05:37:08;;;;;;;107.15;52.90;;;;;;;17.28;100.00;100957.97;4918978;29;20508;-81
2022/10/16 05:39:34;;;;;;;93.47;51.60;;;;;;;17.35;100.00;100958.84;4919048;29;20039;-81
2022/10/16 05:41:59;;;;;;;85.60;49.10;;;;;;;17.48;100.00;100959.78;4920016;29;20146;-80
2022/10/16 05:44:25;;;;;;;83.90;46.90;;;;;;;17.66;100.00;100962.00;4918772;29;20040;-78
2022/10/16 05:46:50;;;;;;;94.72;49.00;;;;;;;17.63;100.00;100966.91;4919304;29;20369;-81
2022/10/16 05:49:16;;;;;;;95.28;49.25;;;;;;;17.38;100.00;100974.53;4919073;29;20033;-81
2022/10/16 05:51:42;;;;;;;87.63;48.17;;;;;;;17.45;100.00;100975.41;4919145;29;20474;-79
2022/10/16 05:54:10;;;;;;;95.50;47.97;;;;;;;17.34;100.00;100974.09;4918485;29;20047;-83
2022/10/16 05:56:36;;;;;;;86.05;45.92;;;;;;;17.48;100.00;100980.38;4918393;29;20126;-81
2022/10/16 05:59:03;;;;;;;84.05;44.80;;;;;;;17.48;100.00;100980.38;4920052;29;20131;-82
2022/10/16 06:01:30;;;;;;;71.18;41.78;;;;;;;17.70;100.00;100994.59;4918897;29;20032;-79
2022/10/16 06:03:56;;;;;;;75.95;39.47;;;;;;;17.57;100.00;100989.97;4918367;29;20037;-81
2022/10/16 06:06:25;;;;;;;80.47;41.45;;;;;;;17.48;100.00;100994.63;4927737;29;20184;-81
2022/10/16 06:08:52;;;;;;;73.60;41.20;;;;;;;17.45;100.00;100994.19;4918733;29;20039;-82
2022/10/16 06:11:26;;;;;;;74.00;41.13;;;;;;;17.43;100.00;100999.72;4918258;29;20047;-84
2022/10/16 06:13:56;;;;;;;80.57;41.15;;;;;;;17.29;100.00;101005.19;4918796;29;20088;-82
2022/10/16 06:16:23;;;;;;;76.05;43.58;;;;;;;17.22;100.00;101012.34;4918907;29;20040;-80
2022/10/16 06:18:51;;;;;;;90.47;45.80;;;;;;;17.18;100.00;101016.41;4919583;29;20056;-82
2022/10/16 06:21:20;;;;;;;95.50;48.88;;;;;;;17.14;100.00;101015.13;4921155;29;20051;-82
2022/10/16 06:23:45;;;;;;;95.90;47.42;;;;;;;17.13;100.00;101029.56;4920109;29;20115;-82
2022/10/16 06:26:13;;;;;;;91.22;50.20;;;;;;;17.14;100.00;101026.69;4918837;29;20080;-82
2022/10/16 06:28:39;;;;;;;96.00;51.25;;;;;;;17.09;100.00;101029.13;4917929;29;20123;-83
2022/10/16 06:31:06;;;;;;;115.93;58.50;;;;;;;17.13;100.00;101030.41;4918180;29;20065;-83
2022/10/16 06:33:32;;;;;;;115.68;60.33;;;;;;;17.15;100.00;101031.03;4917736;29;20039;-83
2022/10/16 06:36:14;;;;;;;118.60;63.13;;;;;;;17.24;100.00;101034.41;4917702;29;20402;-82
2022/10/16 06:38:41;;;;;;;114.30;60.53;;;;;;;17.27;100.00;101042.88;4917970;29;20036;-81
2022/10/16 06:41:09;;;;;;;127.20;62.17;;;;;;;17.22;100.00;101045.31;4917933;29;20056;-80
2022/10/16 06:43:37;;;;;;;122.55;61.92;;;;;;;17.17;100.00;101044.25;4918362;29;20046;-81
2022/10/16 06:46:04;;;;;;;114.82;59.08;;;;;;;17.21;100.00;101053.53;4918131;29;20496;-82
2022/10/16 06:48:30;;;;;;;126.80;60.85;;;;;;;17.37;100.00;101058.63;4917842;29;20036;-83
2022/10/16 06:50:58;;;;;;;130.05;62.10;;;;;;;17.37;100.00;101054.09;4947021;29;20031;-84
2022/10/16 06:53:24;;;;;;;125.05;63.67;;;;;;;17.47;100.00;101067.16;4954619;29;20094;-83
2022/10/16 06:55:50;;;;;;;139.02;65.57;;;;;;;17.40;100.00;101079.69;4954332;29;20027;-84
2022/10/16 06:58:16;;;;;;;129.60;67.85;;;;;;;17.37;100.00;101070.16;4956475;28;20066;-86
2022/10/16 07:00:41;;;;;;;139.80;68.53;;;;;;;17.36;100.00;101078.41;4940070;29;20063;-82
2022/10/16 07:03:07;;;;;;;133.18;69.50;;;;;;;17.31;100.00;101091.53;4956220;29;20035;-82
2022/10/16 07:05:38;;;;;;;143.30;72.43;;;;;;;17.31;100.00;101091.53;4955391;28;20043;-83
2022/10/16 07:08:05;;;;;;;152.77;72.40;;;;;;;17.35;100.00;101098.19;4955582;28;20039;-83
2022/10/16 07:10:31;;;;;;;135.73;72.80;;;;;;;17.39;100.00;101094.09;4955303;28;20039;-81
2022/10/16 07:12:56;;;;;;;142.13;75.40;;;;;;;17.40;100.00;101093.91;4955422;28;20086;-84
2022/10/16 07:15:22;;;;;;;149.73;76.78;;;;;;;17.40;100.00;101096.59;4955144;29;20043;-83
2022/10/16 07:17:48;;;;;;;150.75;74.63;;;;;;;17.42;100.00;101107.13;4955202;28;20217;-80
2022/10/16 07:20:14;;;;;;;143.13;74.78;;;;;;;17.45;100.00;101101.38;4954898;29;20057;-83
2022/10/16 07:22:39;;;;;;;145.25;74.80;;;;;;;17.43;100.00;101111.47;4955424;29;20754;-81
2022/10/16 07:25:05;;;;;;;148.45;75.57;;;;;;;17.44;100.00;101102.38;4955193;28;20078;-84
2022/10/16 07:27:31;;;;;;;137.20;72.80;;;;;;;17.49;100.00;101110.69;4957788;28;20050;-81
2022/10/16 07:29:56;;;;;;;156.68;77.63;;;;;;;17.53;100.00;101111.97;4961589;29;20481;-84
2022/10/16 07:32:22;;;;;;;136.20;75.63;;;;;;;17.56;100.00;101111.63;4954046;29;20078;-83
2022/10/16 07:34:47;;;;;;;149.10;77.53;;;;;;;17.61;100.00;101113.69;4953935;28;20024;-83
2022/10/16 07:37:13;;;;;;;146.30;76.68;;;;;;;17.59;100.00;101116.59;4954654;29;20039;-86
2022/10/16 07:39:38;;;;;;;151.98;79.75;;;;;;;17.60;100.00;101120.91;4954570;29;20453;-84
2022/10/16 07:42:04;;;;;;;146.70;77.28;;;;;;;17.69;100.00;101130.50;4954757;29;20043;-83
2022/10/16 07:44:29;;;;;;;153.02;77.97;;;;;;;17.73;100.00;101128.25;4955121;29;20040;-84
2022/10/16 07:46:55;;;;;;;156.52;80.13;;;;;;;17.79;100.00;101122.13;4954841;29;20023;-84
2022/10/16 07:49:20;;;;;;;148.82;77.07;;;;;;;17.87;100.00;101135.34;4943618;29;20098;-85
2022/10/16 07:51:46;;;;;;;151.77;78.68;;;;;;;17.89;100.00;101142.22;4916054;29;20037;-84
2022/10/16 07:54:12;;;;;;;148.75;77.90;;;;;;;17.94;100.00;101142.44;4918067;29;20035;-81
2022/10/16 07:56:37;;;;;;;137.35;73.85;;;;;;;17.96;100.00;101144.94;4916677;29;20048;-84
2022/10/16 07:59:03;;;;;;;132.50;71.15;;;;;;;17.96;100.00;101151.09;4915046;29;20044;-84
2022/10/16 08:01:28;;;;;;;144.80;76.50;;;;;;;17.99;100.00;101150.75;4919771;29;20091;-90
2022/10/16 08:03:54;;;;;;;140.55;74.45;;;;;;;18.06;100.00;101154.28;4904072;29;20047;-90
2022/10/16 08:06:21;;;;;;;137.80;75.28;;;;;;;18.06;100.00;101151.59;4918861;29;20439;-85
2022/10/16 08:08:47;;;;;;;135.18;74.22;;;;;;;18.08;100.00;101160.31;4917217;29;20091;-84
2022/10/16 08:11:16;;;;;;;141.25;74.47;;;;;;;18.35;100.00;101149.75;4922004;29;20032;-89
2022/10/16 08:13:43;;;;;;;134.93;71.10;;;;;;;18.52;100.00;101151.13;4926731;29;20043;-84
2022/10/16 08:16:11;;;;;;;130.00;68.82;;;;;;;18.48;100.00;101152.50;4923675;29;20470;-84
2022/10/16 08:18:40;;;;;;;133.65;69.75;;;;;;;18.50;100.00;101150.47;4929922;29;20036;-89
2022/10/16 08:21:10;;;;;;;129.10;67.80;;;;;;;18.54;100.00;101159.78;4927262;29;20036;-87
2022/10/16 08:23:35;;;;;;;122.90;67.45;;;;;;;18.59;100.00;101162.72;4922460;29;20071;-85
2022/10/16 08:26:05;;;;;;;119.47;65.07;;;;;;;18.76;100.00;101165.91;4926598;29;20131;-88
2022/10/16 08:28:31;;;;;;;115.88;63.53;;;;;;;18.81;100.00;101160.75;4926978;29;20040;-86
2022/10/16 08:31:05;;;;;;;120.85;62.95;;;;;;;18.86;100.00;101152.91;4926048;29;20063;-88
2022/10/16 08:33:35;;;;;;;118.50;62.10;;;;;;;18.94;100.00;101156.25;4933037;29;20101;-87
2022/10/16 08:36:01;;;;;;;125.05;64.65;;;;;;;19.04;100.00;101162.09;4935803;29;20059;-89
2022/10/16 08:38:27;;;;;;;125.55;65.10;;;;;;;19.32;100.00;101161.94;4929931;29;20397;-86
2022/10/16 08:41:16;;;;;;;113.13;62.45;;;;;;;19.45;100.00;101169.25;4931436;29;20040;-86
2022/10/16 08:43:58;;;;;;;118.82;61.85;;;;;;;19.76;100.00;101169.47;4929685;29;20075;-91
2022/10/16 08:46:33;;;;;;;118.68;65.80;;;;;;;19.73;100.00;101177.97;4926730;29;20050;-87
2022/10/16 08:49:00;;;;;;;120.03;65.35;;;;;;;19.88;100.00;101186.69;4931207;29;20044;-83
2022/10/16 08:51:36;;;;;;;119.90;64.82;;;;;;;20.07;100.00;101185.00;4946684;29;20036;-84
2022/10/16 08:54:29;;;;;;;129.27;66.78;;;;;;;19.86;100.00;101185.19;4943654;29;20032;-84
2022/10/16 08:56:56;;;;;;;114.95;66.18;;;;;;;19.71;100.00;101188.09;4936064;29;20063;-84
2022/10/16 08:59:22;;;;;;;120.05;63.30;;;;;;;19.73;100.00;101187.88;4951380;29;20058;-86
2022/10/16 09:01:51;;;;;;;119.65;62.42;;;;;;;19.89;100.00;101191.00;4946727;29;20027;-87
2022/10/16 09:04:28;;;;;;;114.18;61.25;;;;;;;19.76;100.00;101192.84;4946776;29;20036;-88
2022/10/16 09:07:06;;;;;;;112.22;63.17;;;;;;;19.71;100.00;101193.50;4945772;29;20050;-88
2022/10/16 09:10:07;;;;;;;117.68;63.17;;;;;;;19.67;100.00;101200.31;4933929;29;20427;-88
2022/10/16 09:12:51;;;;;;;129.05;64.25;;;;;;;19.72;100.00;101197.81;4904500;29;20037;-85
2022/10/16 09:15:23;;;;;;;109.95;59.17;;;;;;;19.77;100.00;101195.34;4926717;29;20051;-85
2022/10/16 09:18:18;;;;;;;108.18;58.30;;;;;;;19.81;100.00;101201.97;4914689;29;20035;-87
2022/10/16 09:21:16;;;;;;;112.40;58.97;;;;;;;19.92;100.00;101201.34;4922806;29;20493;-88
2022/10/16 09:23:42;;;;;;;99.00;57.35;;;;;;;20.05;100.00;101201.34;4931157;29;20036;-89
2022/10/16 09:26:13;;;;;;;101.40;56.47;;;;;;;20.10;100.00;101204.25;4930484;29;20168;-83
2022/10/16 09:28:39;;;;;;;106.45;58.15;;;;;;;20.23;100.00;101205.28;4941026;29;20150;-85
2022/10/16 09:31:15;;;;;;;116.18;58.17;;;;;;;20.16;100.00;101212.53;4929018;29;20031;-84
2022/10/16 09:33:42;;;;;;;97.97;57.30;;;;;;;20.23;100.00;101194.50;4931487;29;20478;-84
2022/10/16 09:36:10;;;;;;;105.80;57.35;;;;;;;20.20;100.00;101201.16;4933261;29;20549;-84
2022/10/16 09:38:36;;;;;;;101.65;56.80;;;;;;;20.37;100.00;101199.72;4931265;29;20032;-83
2022/10/16 09:41:22;;;;;;;109.15;58.78;;;;;;;20.42;100.00;101199.06;4930425;29;20079;-82
2022/10/16 09:43:52;;;;;;;105.15;58.65;;;;;;;20.41;100.00;101197.44;4935333;29;20036;-83
2022/10/16 09:46:38;;;;;;;116.07;60.15;;;;;;;20.48;100.00;101203.63;4926321;29;20036;-85
2022/10/16 09:49:05;;;;;;;109.10;60.60;;;;;;;20.36;100.00;101205.28;4929833;29;20446;-85
2022/10/16 09:51:37;;;;;;;111.93;62.58;;;;;;;20.61;100.00;101199.03;4933432;29;20071;-92
2022/10/16 09:54:19;;;;;;;108.97;63.17;;;;;;;21.07;100.00;101198.06;4930801;29;20059;-88
2022/10/16 09:56:46;;;;;;;119.93;63.47;;;;;;;21.42;100.00;101193.13;4939563;29;20032;-91
2022/10/16 09:59:13;;;;;;;118.72;66.00;;;;;;;22.04;100.00;101195.81;4935265;29;20036;-91
2022/10/16 10:01:50;;;;;;;114.65;64.15;;;;;;;22.41;100.00;101201.28;4937051;29;20032;-87
2022/10/16 10:04:17;;;;;;;116.10;62.13;;;;;;;22.51;100.00;101209.69;4936660;29;20028;-89
2022/10/16 10:06:42;;;;;;;115.68;62.00;;;;;;;22.93;100.00;101205.34;4942755;29;20067;-91
2022/10/16 10:09:28;;;;;;;104.70;62.55;;;;;;;23.32;100.00;101206.69;4929838;29;20395;-82
2022/10/16 10:12:36;;;;;;;113.72;60.60;;;;;;;23.31;100.00;101205.03;4929860;29;20036;-82
2022/10/16 10:15:13;;;;;;;109.68;60.90;;;;;;;23.68;100.00;101209.31;4870201;29;20467;-83
2022/10/16 10:17:53;;;;;;;112.40;58.95;;;;;;;24.24;100.00;101218.84;4878508;29;20056;-85
2022/10/16 10:20:34;;;;;;;109.50;63.15;;;;;;;24.39;99.21;101213.81;4879739;29;20036;-84
2022/10/16 10:23:00;;;;;;;135.88;71.22;;;;;;;24.68;96.98;101210.13;4879248;29;20068;-85
2022/10/16 10:25:35;;;;;;;106.22;61.85;;;;;;;24.94;94.33;101208.78;4909510;29;20531;-83
2022/10/16 10:28:35;;;;;;;114.20;59.53;;;;;;;24.94;94.06;101208.78;4925204;29;20369;-86
2022/10/16 10:31:14;;;;;;;107.60;62.17;;;;;;;24.47;96.41;101202.59;4918001;29;20398;-86
2022/10/16 10:34:01;;;;;;;100.70;57.70;;;;;;;24.00;100.00;101202.53;4918501;29;20036;-85
2022/10/16 10:36:32;;;;;;;100.80;59.70;;;;;;;23.79;100.00;101200.41;4921223;29;20047;-83
2022/10/16 10:39:08;;;;;;;105.10;60.70;;;;;;;23.32;100.00;101201.28;4921068;29;20119;-87
2022/10/16 10:41:37;;;;;;;103.18;60.95;;;;;;;22.81;100.00;101201.72;4905035;29;20048;-85
2022/10/16 10:44:30;;;;;;;110.03;60.75;;;;;;;22.62;100.00;101198.16;4918324;29;20036;-84
2022/10/16 10:47:04;;;;;;;113.65;63.28;;;;;;;22.58;100.00;101196.94;4922753;29;20032;-82
2022/10/16 10:50:11;;;;;;;117.63;63.53;;;;;;;22.72;100.00;101198.50;4939802;29;20035;-84
2022/10/16 10:52:45;;;;;;;116.97;62.95;;;;;;;22.31;100.00;101195.56;4863973;29;20053;-84
2022/10/16 10:55:23;;;;;;;109.20;62.28;;;;;;;22.22;100.00;101191.50;4849333;29;20076;-88
2022/10/16 10:58:04;;;;;;;115.05;61.53;;;;;;;22.30;100.00;101193.94;4844821;29;20053;-84
2022/10/16 11:01:10;;;;;;;105.85;60.30;;;;;;;22.38;100.00;101196.31;4843332;29;20159;-87
2022/10/16 11:04:03;;;;;;;97.65;57.22;;;;;;;22.36;100.00;101198.44;4845463;29;20038;-85
2022/10/16 11:06:51;;;;;;;100.93;59.38;;;;;;;22.33;100.00;101188.91;4844801;29;20049;-85
2022/10/16 11:09:39;;;;;;;103.03;59.65;;;;;;;22.17;100.00;101191.34;4843970;29;20044;-82
2022/10/16 11:12:29;;;;;;;101.93;58.67;;;;;;;22.25;100.00;101191.06;4849787;29;20030;-83
2022/10/16 11:14:57;;;;;;;103.68;57.13;;;;;;;22.38;100.00;101190.91;4855282;29;20049;-85